Buxton, NC

5:58 PM EDT on October 23, 2014 (GMT -0400)
KNCBUXTO2 | Change Station
CLOSE
Current Station
Personal Weather Station
Location: Buxton, NC
Elevation: 42 ft
Nearby Weather Stations

Elev 42 ft 35.26 °N, 75.53 °W | Updated 5 minutes ago

Clear
Clear
63.3 °F
Feels Like 63.3 °F
N
4.0
Wind Variable Wind from NNW

Today
High -- | Low -- °F
--% Chance of Precip.
Yesterday
High -- | Low -- °F
Precip. -- in
7:15 AM 6:17 PM
Waning Crescent, 0% visible
Pressure 29.87 in
Visibility 10.0 miles
Clouds Clear
Dew Point 53 °F
Humidity 69%
Rainfall 0.00 in
Snow Depth Not available.
UV 0 out of 12
Pollen 1.40 out of 12
Air Quality Not available.
Flu Activity Sporadic
METAR KHSE 232151Z AUTO VRB06KT 10SM CLR 17/10 A2987 RMK AO2 SLP115 T01720100 TSNO

More Conditions Fewer Conditions

Pressure 29.87 in
Visibility 10.0 miles
Clouds Clear
Dew Point 53 °F
Humidity 69%
Rainfall 0.00 in
Snow Depth Not available.
UV 0 out of 12
Pollen 1.40 out of 12
Air Quality Not available.
Flu Activity Sporadic
METAR KHSE 232151Z AUTO VRB06KT 10SM CLR 17/10 A2987 RMK AO2 SLP115 T01720100 TSNO

More Conditions Fewer Conditions

10-Day Weather Forecast

Almanac

Astronomy

Oct. 23, 2014 Rise Set
Actual Time 7:15 AM EDT 6:17 PM EDT
Civil Twilight 6:49 AM EDT 6:42 PM EDT
Nautical Twilight 6:19 AM EDT 7:12 PM EDT
Astronomical Twilight 5:50 AM EDT 7:42 PM EDT
Moon 6:53 AM EDT 6:17 PM EDT
Length of Visible Light 11h 53m
Length of Day
11h 01m
Tomorrow will be 2m 4s shorter.
Waning Crescent, 0% of the Moon is Illuminated
Today
Waning Crescent
Oct 30
First Quarter
Nov 6
Full
Nov 14
Last Quarter
Nov 22
New

Today's Extremes

State Highs State Lows

Community

WunderPhotos

Upload Photos

1,764,381 photos uploaded!

WunderBlogs® & News

Nearby

Snow Depth

Station Depth Elevation
No new snow has been reported.

Earthquake Activity

City Distance Mag. Time & Date
No recent earthquake activity has been reported nearby.
Minimum magnitude displayed is 2.5.

Coastal Water Temperatures

Place Temperature
Beaufort, NC 66.9 °F
Hatteras, NC 63.0 °F
Oregon Inlet Marina, NC 64.0 °F
Duck Pier, NC 66.0 °F
Johnny Mercer Pier, Wrightsville Beach, NC 73.0 °F

Nearby Weather Stations